This is the latest recevied weather packets stored in our database for station/object VE2XOX. If no packets are shown the sender has not sent any weather packets the latest 10 day(s).
| Time | Temp. | Humidity | Pressure | Rain* | Wind** | Luminosity | Snow |
|---|---|---|---|---|---|---|---|
| 1777997116 | 17.78° C | 71% | 999.1 hPa | 0 mm | - | - | - |
| 1777995316 | 19.44° C | 56% | 998.9 hPa | 0 mm | - | - | - |
| 1777995017 | 19.44° C | 57% | 998.9 hPa | 0 mm | - | - | - |
| 1777994720 | 18.89° C | 57% | 998.8 hPa | 0 mm | - | - | - |
| 1777994428 | 18.89° C | 57% | 999 hPa | 0 mm | - | - | - |
| 1777994130 | 18.33° C | 58% | 999.1 hPa | 0 mm | - | - | - |
| 1777993814 | 17.78° C | 59% | 999.2 hPa | 0 mm | - | - | - |
| 1777993220 | 17.22° C | 59% | 999.4 hPa | 0 mm | - | - | - |
| 1777992932 | 17.22° C | 59% | 999.5 hPa | 0 mm | - | - | - |
| 1777992320 | 17.22° C | 59% | 999.6 hPa | 0 mm | - | - | - |
| 1777992033 | 17.22° C | 58% | 999.6 hPa | 0 mm | - | - | - |
| 1777991718 | 17.22° C | 57% | 999.5 hPa | 0 mm | - | - | - |
| 1777991130 | 17.22° C | 58% | 999.5 hPa | 0 mm | - | - | - |
| 1777990812 | 16.67° C | 59% | 999.5 hPa | 0 mm | - | - | - |
| 1777990225 | 16.11° C | 59% | 999.5 hPa | 0 mm | - | - | - |
| 1777989325 | 15.56° C | 61% | 999.8 hPa | 0 mm | - | - | - |
| 1777989027 | 15.56° C | 60% | 999.8 hPa | 0 mm | - | - | - |
| 1777988420 | 15.56° C | 60% | 1000 hPa | 0 mm | - | - | - |
| 1777988127 | 15.56° C | 60% | 1000 hPa | 0 mm | - | - | - |
| 1777987812 | 15.56° C | 59% | 1000.1 hPa | 0 mm | - | - | - |
| 1777987524 | 15.56° C | 59% | 1000.1 hPa | 0 mm | - | - | - |
| 1777987228 | 15.56° C | 61% | 1000.2 hPa | 0 mm | - | - | - |
| 1777986912 | 15° C | 60% | 1000.2 hPa | 0 mm | - | - | - |
| 1777985423 | 14.44° C | 63% | 1000 hPa | 0 mm | - | - | - |
| 1777985132 | 13.89° C | 63% | 1000.1 hPa | 0 mm | - | - | - |
* Rain latest hour (hover to see other rain measurements)
** Current wind speed in m/s (hover to see current wind gust speed)